Monday, July 28, 2014, 10:20 AM EDT

KDYL, Doylestown Airport

Location: Doylestown, PA, United States Lat: 40.333
Local Time: 10:20 AM EDT (14:20 GMT) Lon: -75.117
Time Zone: US/Eastern Elev: 393 ft

Show me the last for .
Show Decoded

2014-07-28 09:54 METAR KDYL 281354Z AUTO 28007KT 10SM FEW014 SCT024 SCT030 23/20 A2959 RMK AO2
                 SLP012 T02280200 =
2014-07-28 09:37 METAR KDYL 281337Z AUTO 26007KT 10SM SCT014 BKN022 BKN027 22/19 A2959 RMK AO2
                 T02170194 =
2014-07-28 09:12 METAR KDYL 281312Z AUTO 26007KT 10SM SCT009 BKN013 21/19 A2958 RMK AO2 T02110194
                 =
2014-07-28 09:03 METAR KDYL 281303Z AUTO 24006KT 10SM BKN009 BKN014 21/20 A2958 RMK AO2 CIG
                 007V013 T02110200 =
2014-07-28 08:54 METAR KDYL 281254Z AUTO 24005KT 10SM BKN011 BKN120 21/19 A2958 RMK AO2 CIG
                 007V012 SLP010 T02060194 =
2014-07-28 08:01 METAR KDYL 281201Z AUTO 26006KT 10SM BKN013 OVC018 20/19 A2958 RMK AO2 T02000194
                 $ =
2014-07-28 07:54 METAR KDYL 281154Z AUTO 25005KT 10SM BKN017 20/19 A2958 RMK AO2 SLP010 60008
                 70062 T02000194 10200 20189 53013 $ =
2014-07-28 07:46 METAR KDYL 281146Z AUTO VRB05KT 10SM BKN019 BKN027 20/19 A2958 RMK AO2 T02000194
                 $ =
2014-07-28 06:54 METAR KDYL 281054Z AUTO 26003KT 10SM CLR 19/19 A2956 RMK AO2 SLP005 T01940194 $
                 =
2014-07-28 05:54 METAR KDYL 280954Z AUTO VRB03KT 10SM CLR 19/19 A2956 RMK AO2 SLP002 T01940194 $
                 =
2014-07-28 04:54 METAR KDYL 280854Z AUTO 20004KT 10SM CLR 19/19 A2954 RMK AO2 SLP998 60008
                 T01940194 56022 $ =
2014-07-28 03:54 METAR KDYL 280754Z AUTO 19004KT 10SM CLR 19/19 A2955 RMK AO2 RAE12 SLP001 P0001
                 T01940194 $ =
2014-07-28 03:08 METAR KDYL 280708Z AUTO 17006KT 10SM -RA FEW007 FEW080 OVC110 19/19 A2957 RMK
                 AO2 P0001 T01940194 $ =
2014-07-28 02:54 METAR KDYL 280654Z AUTO VRB04KT 10SM VCTS -RA SCT007 OVC110 20/20 A2957 RMK AO2
                 LTG DSNT E AND SE TSB36E51 SLP008 P0007 T02000200 $ =
2014-07-28 02:51 METAR KDYL 280651Z AUTO 19005KT 10SM VCTS -RA SCT006 BKN090 OVC110 20/20 A2958
                 RMK AO2 LTG DSNT E-S TSB36E51 P0007 $ =
2014-07-28 02:42 METAR KDYL 280642Z AUTO VRB06KT 10SM -TSRA BKN006 BKN055 OVC110 20/20 A2958 RMK
                 AO2 LTG DSNT SE AND S TSB36 P0005 T02000200 $ =
2014-07-28 02:09 METAR KDYL 280609Z AUTO VRB05KT 10SM -RA BKN005 BKN008 BKN090 19/19 A2960 RMK
                 AO2 LTG DSNT E-S CIG 003V008 P0000 T01940194 $ =
2014-07-28 01:54 METAR KDYL 280554Z AUTO 18004KT 10SM VCTS -RA FEW003 BKN090 19/19 A2961 RMK AO2
                 LTG DSNT SE-SW RAB41 SLP020 P0000 60054 T01940194 10272 20194 56022 $ =
2014-07-28 01:03 METAR KDYL 280503Z AUTO 00000KT 10SM FEW008 BKN110 19/19 A2961 RMK AO2 LTG DSNT
                 E-S T01940194 $ =
2014-07-28 00:54 METAR KDYL 280454Z AUTO 17003KT 10SM BKN110 19/19 A2962 RMK AO2 LTG DSNT E-S
                 RAE12B15E24 TSE07 SLP025 P0016 T01940194 403110194 $ =
2014-07-28 00:31 METAR KDYL 280431Z AUTO 21007KT 10SM BKN100 21/19 A2963 RMK AO2 LTG DSNT ALQDS
                 RAE12B15E24 TSE07 P0016 T02060194 $ =
2014-07-28 00:13 METAR KDYL 280413Z AUTO 14006KT 10SM VCTS FEW047 SCT070 OVC100 21/19 A2962 RMK
                 AO2 LTG DSNT ALQDS RAE12 TSE07 PRESFR P0013 T02060194 $ =
2014-07-27 23:54 METAR KDYL 280354Z AUTO VRB03KT 6SM -TSRA BR BKN039 BKN050 OVC075 20/19 A2965
                 RMK AO2 PK WND 27026/0313 LTG DSNT ALQDS RAEMMB16 TSB08E34B35 PRESFR SLP034
                 P0031 T02000194 $ =
2014-07-27 23:51 METAR KDYL 280351Z AUTO VRB05KT 3SM TSRA BR BKN037 BKN049 OVC075 20/19 A2966 RMK
                 AO2 PK WND 27026/0313 LTG DSNT ALQDS RAEMMB16 TSB08E34B35 P0029 $ =
2014-07-27 23:44 METAR KDYL 280344Z AUTO 14007KT 080V180 1 3/4SM +TSRA BR BKN032 BKN041 OVC070
                 19/19 A2967 RMK AO2 PK WND 27026/0313 LTG DSNT ALQDS RAEMMB16 TSB08E34B35 PRESFR
                 P0022 T01940194 $ =
2014-07-27 23:14 METAR KDYL 280314Z AUTO 25017G26KT 7SM TS FEW022 SCT034 OVC100 22/20 A2970 RMK
                 AO2 PK WND 27026/0313 LTG DSNT ALQDS RAEMM TSB08 P0003 T02170200 PWINO $ =
2014-07-27 22:54 METAR KDYL 280254Z AUTO 17006KT 10SM VCTS -RA FEW019 BKN095 OVC110 23/23 A2967
                 RMK AO2 LTG DSNT ALQDS SLP042 P0007 60007 T02330228 58001 =
2014-07-27 22:26 METAR KDYL 280226Z AUTO 17004KT 9SM VCTS RA FEW023 BKN048 OVC110 24/23 A2969 RMK
                 AO2 LTG DSNT ALQDS P0003 T02390228 =
2014-07-27 22:12 METAR KDYL 280212Z AUTO 00000KT 10SM -RA SCT026 BKN075 OVC120 25/23 A2969 RMK
                 AO2 LTG DSNT ALQDS P0001 T02500228 =
2014-07-27 21:54 METAR KDYL 280154Z AUTO 17004KT 10SM VCTS -RA FEW060 BKN090 BKN120 24/23 A2969
                 RMK AO2 LTG DSNT SW-NW RAB16 SLP047 P0000 T02440228 =
2014-07-27 20:54 METAR KDYL 280054Z AUTO 18005KT 10SM CLR 26/22 A2968 RMK AO2 LTG DSNT W SLP044
                 T02610222 =
2014-07-27 19:54 METAR KDYL 272354Z AUTO 19005KT 10SM CLR 27/22 A2968 RMK AO2 SLP043 T02720217
                 10311 20272 55011 =
2014-07-27 18:54 METAR KDYL 272254Z AUTO 25004KT 10SM CLR 29/18 A2967 RMK AO2 SLP042 T02890183 =
2014-07-27 17:54 METAR KDYL 272154Z AUTO 22006KT 10SM SCT049 BKN060 29/19 A2969 RMK AO2 SLP047
                 T02940194 =
2014-07-27 15:54 METAR KDYL 271954Z AUTO 27007KT 10SM CLR 31/18 A2973 RMK AO2 SLP059 T03110183 =
2014-07-27 14:54 METAR KDYL 271854Z AUTO 28008KT 10SM SCT046 BKN055 29/19 A2974 RMK AO2 SLP065
                 T02940194 =
2014-07-27 13:54 METAR KDYL 271754Z AUTO 30005KT 10SM CLR 29/20 A2975 RMK AO2 SLP067 T02940200
                 10300 20211 57010 =
2014-07-27 12:54 METAR KDYL 271654Z AUTO 27008KT 230V300 10SM BKN036 BKN046 28/20 A2976 RMK AO2
                 SLP070 T02830200 =
2014-07-27 11:54 METAR KDYL 271554Z AUTO VRB04KT 10SM FEW032 FEW075 28/21 A2977 RMK AO2 SLP073
                 T02780206 =
2014-07-27 10:54 METAR KDYL 271454Z AUTO 23005G14KT 10SM FEW041 SCT048 26/19 A2978 RMK AO2 SLP077
                 T02610194 56008 =
2014-07-27 10:28 METAR KDYL 271428Z AUTO 23007KT 10SM SCT022 SCT028 BKN090 26/21 A2979 RMK AO2
                 T02610206 =

Support USWX by starting your Amazon purchase here.